Time,TemperatureF,DewpointF,PressureIn,WindDirection,WindDirectionDegrees,WindSpeedMPH,WindSpeedGustMPH,Humidity,HourlyPrecipIn,Conditions,Clouds,dailyrainin,SoftwareType,DateUTC
2013-12-21 00:00:00,43.6,40.8,29.80,SE,135,1.9,2.2,89,0.00,,,0.00,tws,2013-12-21 07:00:00,
2013-12-21 00:10:00,43.6,40.8,29.80,SE,135,0.5,1.8,89,0.00,,,0.00,tws,2013-12-21 07:10:00,
2013-12-21 00:20:00,43.7,40.8,29.80,SE,135,0.0,0.0,89,0.00,,,0.00,tws,2013-12-21 07:20:00,
2013-12-21 00:30:00,43.7,41.0,29.80,ESE,112,0.0,0.0,90,0.00,,,0.00,tws,2013-12-21 07:30:00,
2013-12-21 00:40:00,43.8,41.1,29.80,East,90,0.0,0.0,90,0.00,,,0.00,tws,2013-12-21 07:40:00,
2013-12-21 00:50:00,43.7,41.0,29.79,ENE,67,1.4,2.1,90,0.00,,,0.00,tws,2013-12-21 07:50:00,
2013-12-21 01:00:00,43.7,41.0,29.80,ENE,67,1.2,2.3,90,0.00,,,0.00,tws,2013-12-21 08:00:00,
2013-12-21 01:10:00,43.6,40.9,29.80,East,90,0.7,2.0,90,0.00,,,0.00,tws,2013-12-21 08:10:00,
2013-12-21 01:20:00,43.5,40.9,29.80,East,90,0.6,1.7,90,0.00,,,0.00,tws,2013-12-21 08:20:00,
2013-12-21 01:30:00,43.5,40.9,29.80,NE,45,2.2,2.6,90,0.00,,,0.00,tws,2013-12-21 08:30:00,
2013-12-21 01:40:00,43.4,40.8,29.80,ENE,67,2.3,3.3,90,0.06,,,0.01,tws,2013-12-21 08:40:00,
2013-12-21 01:50:00,43.4,40.8,29.80,ESE,112,1.3,2.3,90,0.00,,,0.01,tws,2013-12-21 08:50:00,
2013-12-21 02:00:00,43.4,40.9,29.80,SSE,157,0.5,1.5,90,0.00,,,0.01,tws,2013-12-21 09:00:00,
2013-12-21 02:10:00,43.4,40.9,29.80,East,90,1.3,2.8,90,0.00,,,0.01,tws,2013-12-21 09:10:00,
2013-12-21 02:20:00,43.4,40.8,29.80,East,90,1.3,2.3,90,0.00,,,0.01,tws,2013-12-21 09:20:00,
2013-12-21 02:30:00,43.3,40.8,29.80,East,90,1.1,2.4,90,0.00,,,0.01,tws,2013-12-21 09:30:00,
2013-12-21 02:40:00,43.4,40.8,29.79,NE,45,1.0,2.2,90,0.00,,,0.01,tws,2013-12-21 09:40:00,
2013-12-21 02:50:00,43.4,41.0,29.80,NE,45,1.7,2.9,91,0.00,,,0.01,tws,2013-12-21 09:50:00,
2013-12-21 03:00:00,43.4,40.8,29.80,NE,45,1.4,2.1,90,0.00,,,0.01,tws,2013-12-21 10:00:00,
2013-12-21 03:10:00,43.4,41.0,29.79,ESE,112,0.5,1.7,91,0.00,,,0.01,tws,2013-12-21 10:10:00,
2013-12-21 03:20:00,43.5,41.1,29.79,East,90,1.9,2.7,91,0.00,,,0.01,tws,2013-12-21 10:20:00,
2013-12-21 03:30:00,43.4,41.0,29.80,East,90,1.1,2.1,91,0.00,,,0.01,tws,2013-12-21 10:30:00,
2013-12-21 03:40:00,43.5,41.0,29.80,South,180,1.1,1.9,91,0.00,,,0.01,tws,2013-12-21 10:40:00,
2013-12-21 03:50:00,43.5,41.0,29.80,SSE,157,1.2,1.9,90,0.00,,,0.01,tws,2013-12-21 10:50:00,
2013-12-21 04:00:00,43.6,41.2,29.81,ESE,112,0.8,2.0,91,0.00,,,0.01,tws,2013-12-21 11:00:00,
2013-12-21 04:10:00,43.6,41.2,29.81,SE,135,0.5,1.8,91,0.00,,,0.01,tws,2013-12-21 11:10:00,
2013-12-21 04:20:00,43.7,41.3,29.80,East,90,0.0,0.0,91,0.00,,,0.01,tws,2013-12-21 11:20:00,
2013-12-21 04:30:00,43.8,41.4,29.80,NE,45,0.0,0.0,91,0.00,,,0.01,tws,2013-12-21 11:30:00,
2013-12-21 04:40:00,43.8,41.4,29.80,North,0,0.0,0.0,91,0.00,,,0.01,tws,2013-12-21 11:40:00,
2013-12-21 04:50:00,43.8,41.4,29.80,North,0,0.0,0.0,91,0.00,,,0.01,tws,2013-12-21 11:50:00,
2013-12-21 05:00:00,43.8,41.3,29.80,NNE,22,0.0,0.0,90,0.00,,,0.01,tws,2013-12-21 12:00:00,
2013-12-21 05:10:00,43.8,41.5,29.81,NE,45,0.0,0.0,91,0.00,,,0.01,tws,2013-12-21 12:10:00,
2013-12-21 05:20:00,43.8,41.4,29.80,NW,315,0.0,0.0,91,0.00,,,0.01,tws,2013-12-21 12:20:00,
2013-12-21 05:30:00,43.7,41.4,29.81,WSW,247,0.0,0.0,91,0.00,,,0.01,tws,2013-12-21 12:30:00,
2013-12-21 05:40:00,43.7,41.4,29.81,North,0,0.0,0.0,91,0.00,,,0.01,tws,2013-12-21 12:40:00,
2013-12-21 05:50:00,43.7,41.3,29.82,SW,225,0.1,0.5,91,0.00,,,0.01,tws,2013-12-21 12:50:00,
2013-12-21 06:00:00,43.7,41.3,29.83,SE,135,0.8,1.8,91,0.00,,,0.01,tws,2013-12-21 13:00:00,
2013-12-21 06:10:00,43.6,41.2,29.84,SE,135,1.4,2.7,91,0.00,,,0.01,tws,2013-12-21 13:10:00,
2013-12-21 06:20:00,43.6,41.1,29.83,SE,135,2.5,3.9,91,0.00,,,0.01,tws,2013-12-21 13:20:00,
2013-12-21 06:30:00,43.5,41.0,29.82,South,180,1.0,2.0,90,0.00,,,0.01,tws,2013-12-21 13:30:00,
2013-12-21 06:40:00,43.5,40.9,29.83,SE,135,0.2,1.2,90,0.00,,,0.01,tws,2013-12-21 13:40:00,
2013-12-21 06:50:00,43.4,40.9,29.82,SE,135,0.0,0.0,90,0.00,,,0.01,tws,2013-12-21 13:50:00,
2013-12-21 07:00:00,43.3,40.7,29.83,SE,135,0.0,0.2,90,0.00,,,0.01,tws,2013-12-21 14:00:00,
2013-12-21 07:10:00,43.2,40.6,29.83,SW,225,0.0,0.0,90,0.00,,,0.01,tws,2013-12-21 14:10:00,
2013-12-21 07:20:00,43.1,40.4,29.85,SW,225,0.1,1.2,90,0.00,,,0.01,tws,2013-12-21 14:20:00,
2013-12-21 07:30:00,42.9,40.4,29.85,NW,315,0.2,0.6,90,0.00,,,0.01,tws,2013-12-21 14:30:00,
2013-12-21 07:40:00,42.8,40.2,29.85,NE,45,0.0,0.0,90,0.00,,,0.01,tws,2013-12-21 14:40:00,
2013-12-21 07:50:00,42.5,39.9,29.85,NE,45,0.0,0.0,90,0.00,,,0.01,tws,2013-12-21 14:50:00,
2013-12-21 08:00:00,42.3,39.7,29.85,North,0,0.0,0.0,90,0.00,,,0.01,tws,2013-12-21 15:00:00,
2013-12-21 08:10:00,42.1,39.6,29.86,West,270,0.0,0.0,90,0.00,,,0.01,tws,2013-12-21 15:10:00,
2013-12-21 08:21:00,42.1,39.7,29.87,SW,225,0.0,0.0,91,0.00,,,0.01,tws,2013-12-21 15:21:00,
2013-12-21 08:40:00,42.7,40.4,29.88,SW,225,0.0,0.0,91,0.00,,,0.01,tws,2013-12-21 15:40:00,
2013-12-21 08:50:00,43.9,41.7,29.88,ESE,112,0.5,1.6,92,0.00,,,0.01,tws,2013-12-21 15:50:00,
2013-12-21 09:00:00,46.7,44.3,29.88,East,90,1.4,2.7,91,0.00,,,0.01,tws,2013-12-21 16:00:00,
2013-12-21 09:10:00,50.4,47.0,29.89,East,90,2.7,4.0,88,0.00,,,0.01,tws,2013-12-21 16:10:00,
2013-12-21 09:20:00,53.2,48.0,29.89,SE,135,3.1,4.3,82,0.00,,,0.01,tws,2013-12-21 16:20:00,
2013-12-21 09:30:00,54.9,47.8,29.89,South,180,4.3,5.4,76,0.00,,,0.01,tws,2013-12-21 16:30:00,
2013-12-21 09:40:00,55.6,46.2,29.89,ESE,112,5.2,7.0,70,0.00,,,0.01,tws,2013-12-21 16:40:00,
2013-12-21 09:50:00,54.5,43.8,29.90,South,180,4.7,8.0,66,0.00,,,0.01,tws,2013-12-21 16:50:00,
2013-12-21 10:00:00,52.4,41.8,29.91,East,90,4.7,6.2,67,0.00,,,0.01,tws,2013-12-21 17:00:00,
2013-12-21 10:10:00,51.5,41.2,29.92,SE,135,4.4,6.3,67,0.00,,,0.01,tws,2013-12-21 17:10:00,
2013-12-21 10:20:00,50.6,40.6,29.92,SSE,157,3.7,4.8,68,0.00,,,0.01,tws,2013-12-21 17:20:00,
2013-12-21 10:30:00,51.5,41.6,29.92,ESE,112,4.2,5.6,68,0.00,,,0.01,tws,2013-12-21 17:30:00,
2013-12-21 10:40:00,52.8,42.3,29.91,ESE,112,4.5,6.1,67,0.00,,,0.01,tws,2013-12-21 17:40:00,
2013-12-21 10:50:00,53.5,42.7,29.91,ESE,112,4.3,6.3,66,0.00,,,0.01,tws,2013-12-21 17:50:00,
2013-12-21 11:00:00,53.4,42.0,29.92,SE,135,4.4,6.3,65,0.00,,,0.01,tws,2013-12-21 18:00:00,
2013-12-21 11:10:00,53.1,41.7,29.91,SE,135,3.9,5.8,65,0.00,,,0.01,tws,2013-12-21 18:10:00,
2013-12-21 11:20:00,52.8,41.2,29.91,East,90,4.5,7.2,64,0.00,,,0.01,tws,2013-12-21 18:20:00,
2013-12-21 11:30:00,52.1,40.4,29.90,SW,225,4.2,6.5,63,0.00,,,0.01,tws,2013-12-21 18:30:00,
2013-12-21 11:40:00,51.7,40.1,29.89,South,180,6.0,7.5,64,0.00,,,0.01,tws,2013-12-21 18:40:00,
2013-12-21 11:50:00,51.7,39.9,29.89,SSE,157,7.5,10.2,63,0.00,,,0.01,tws,2013-12-21 18:50:00,
2013-12-21 12:00:00,51.8,39.8,29.89,SE,135,7.1,8.6,63,0.00,,,0.01,tws,2013-12-21 19:00:00,
2013-12-21 12:10:00,51.6,39.8,29.88,South,180,6.3,8.2,63,0.00,,,0.01,tws,2013-12-21 19:10:00,
2013-12-21 12:20:00,51.3,39.3,29.88,ESE,112,7.4,8.3,63,0.00,,,0.01,tws,2013-12-21 19:20:00,
2013-12-21 12:30:00,51.0,39.0,29.88,South,180,6.4,9.0,63,0.00,,,0.01,tws,2013-12-21 19:30:00,
2013-12-21 12:40:00,50.8,38.8,29.88,South,180,6.3,8.5,63,0.00,,,0.01,tws,2013-12-21 19:40:00,
2013-12-21 12:50:00,50.5,38.6,29.87,SE,135,6.8,8.4,63,0.00,,,0.01,tws,2013-12-21 19:50:00,
2013-12-21 13:00:00,50.3,38.6,29.87,South,180,7.4,9.6,63,0.00,,,0.01,tws,2013-12-21 20:00:00,
2013-12-21 13:10:00,50.1,38.5,29.87,SSE,157,8.9,11.7,64,0.00,,,0.01,tws,2013-12-21 20:10:00,
2013-12-21 13:20:00,50.0,38.7,29.87,SE,135,7.0,8.6,64,0.00,,,0.01,tws,2013-12-21 20:20:00,
2013-12-21 13:30:00,50.0,38.9,29.87,ESE,112,6.9,9.0,65,0.00,,,0.01,tws,2013-12-21 20:30:00,
2013-12-21 13:40:00,50.0,38.9,29.87,SW,225,7.1,9.5,65,0.00,,,0.01,tws,2013-12-21 20:40:00,
2013-12-21 13:50:00,50.1,38.5,29.87,South,180,8.8,11.1,63,0.00,,,0.01,tws,2013-12-21 20:50:00,
2013-12-21 14:00:00,50.2,38.4,29.87,South,180,7.1,8.8,63,0.00,,,0.01,tws,2013-12-21 21:00:00,
2013-12-21 14:10:00,50.4,38.4,29.86,SW,225,7.2,9.9,63,0.00,,,0.01,tws,2013-12-21 21:10:00,
2013-12-21 14:20:00,51.0,39.0,29.87,South,180,6.9,9.9,63,0.00,,,0.01,tws,2013-12-21 21:20:00,
2013-12-21 14:30:00,51.9,39.9,29.87,SSE,157,7.9,9.6,63,0.00,,,0.01,tws,2013-12-21 21:30:00,
2013-12-21 14:40:00,51.9,39.6,29.87,SSE,157,5.8,9.1,62,0.00,,,0.01,tws,2013-12-21 21:40:00,
2013-12-21 14:50:00,51.8,39.6,29.87,SW,225,5.0,7.6,62,0.00,,,0.01,tws,2013-12-21 21:50:00,
2013-12-21 15:00:00,51.7,39.4,29.87,South,180,6.5,8.8,62,0.00,,,0.01,tws,2013-12-21 22:00:00,
2013-12-21 15:10:00,51.5,39.0,29.87,South,180,6.2,7.5,61,0.00,,,0.01,tws,2013-12-21 22:10:00,
2013-12-21 15:20:00,51.4,38.9,29.87,SW,225,6.1,7.9,62,0.00,,,0.01,tws,2013-12-21 22:20:00,
2013-12-21 15:30:00,51.2,38.6,29.87,South,180,7.6,9.5,61,0.00,,,0.01,tws,2013-12-21 22:30:00,
2013-12-21 15:40:00,51.1,38.4,29.88,SSE,157,7.0,8.4,61,0.00,,,0.01,tws,2013-12-21 22:40:00,
2013-12-21 15:50:00,51.1,38.4,29.87,WSW,247,7.6,9.1,61,0.00,,,0.01,tws,2013-12-21 22:50:00,
2013-12-21 16:00:00,51.1,38.6,29.88,South,180,6.0,7.5,61,0.00,,,0.01,tws,2013-12-21 23:00:00,
2013-12-21 16:10:00,51.0,38.7,29.88,South,180,5.0,7.6,62,0.00,,,0.01,tws,2013-12-21 23:10:00,
2013-12-21 16:20:00,51.1,38.9,29.89,SW,225,4.6,6.4,62,0.00,,,0.01,tws,2013-12-21 23:20:00,
2013-12-21 16:30:00,51.1,38.8,29.89,South,180,5.6,7.0,62,0.00,,,0.01,tws,2013-12-21 23:30:00,
2013-12-21 16:40:00,51.1,38.8,29.89,West,270,4.1,6.4,62,0.00,,,0.01,tws,2013-12-21 23:40:00,
2013-12-21 16:50:00,51.0,38.8,29.89,SW,225,5.0,6.0,62,0.00,,,0.01,tws,2013-12-21 23:50:00,
2013-12-21 17:00:00,50.8,38.8,29.89,SW,225,4.5,6.5,63,0.00,,,0.01,tws,2013-12-22 00:00:00,
2013-12-21 17:10:00,50.7,38.6,29.89,SW,225,4.0,5.1,62,0.00,,,0.01,tws,2013-12-22 00:10:00,
2013-12-21 17:20:00,50.6,38.6,29.89,SW,225,3.5,4.6,63,0.00,,,0.01,tws,2013-12-22 00:20:00,
2013-12-21 17:30:00,50.5,38.7,29.89,East,90,4.3,5.8,63,0.00,,,0.01,tws,2013-12-22 00:30:00,
2013-12-21 17:40:00,50.4,38.0,29.90,South,180,4.2,5.5,62,0.00,,,0.01,tws,2013-12-22 00:40:00,
2013-12-21 17:50:00,50.3,37.3,29.91,South,180,4.0,6.1,60,0.00,,,0.01,tws,2013-12-22 00:50:00,
2013-12-21 18:00:00,50.0,36.8,29.92,South,180,2.6,3.3,60,0.00,,,0.01,tws,2013-12-22 01:00:00,
2013-12-21 18:10:00,49.6,36.4,29.91,NE,45,2.8,3.5,60,0.00,,,0.01,tws,2013-12-22 01:10:00,
2013-12-21 18:20:00,49.2,36.2,29.92,SW,225,2.8,3.3,60,0.00,,,0.01,tws,2013-12-22 01:20:00,
2013-12-21 18:30:00,49.0,36.1,29.91,SSW,202,3.1,3.7,60,0.00,,,0.01,tws,2013-12-22 01:30:00,
2013-12-21 18:40:00,48.8,36.2,29.92,SSW,202,2.1,3.4,61,0.00,,,0.01,tws,2013-12-22 01:40:00,
2013-12-21 18:50:00,48.6,36.6,29.92,NNW,337,0.7,1.6,62,0.00,,,0.01,tws,2013-12-22 01:50:00,
2013-12-21 19:00:00,48.3,36.9,29.94,WNW,292,0.9,1.5,64,0.00,,,0.01,tws,2013-12-22 02:00:00,
2013-12-21 19:10:00,47.9,36.8,29.94,NW,315,0.1,1.1,65,0.00,,,0.01,tws,2013-12-22 02:10:00,
2013-12-21 19:20:00,47.5,36.9,29.94,NW,315,0.8,2.0,66,0.00,,,0.01,tws,2013-12-22 02:20:00,
2013-12-21 19:30:00,47.1,37.0,29.96,NW,315,1.7,2.1,67,0.00,,,0.01,tws,2013-12-22 02:30:00,
2013-12-21 19:40:00,46.8,37.3,29.97,NW,315,1.6,2.1,69,0.00,,,0.01,tws,2013-12-22 02:40:00,
2013-12-21 19:50:00,46.6,37.6,29.96,NW,315,1.2,1.8,70,0.00,,,0.01,tws,2013-12-22 02:50:00,
2013-12-21 20:00:00,46.4,37.4,29.96,North,0,0.5,1.7,70,0.00,,,0.01,tws,2013-12-22 03:00:00,
2013-12-21 20:10:00,46.1,37.4,29.96,NE,45,0.9,2.6,71,0.00,,,0.01,tws,2013-12-22 03:10:00,
2013-12-21 20:20:00,45.7,37.1,29.97,NNW,337,0.0,0.0,71,0.00,,,0.01,tws,2013-12-22 03:20:00,
2013-12-21 20:30:00,45.3,36.8,29.98,South,180,0.6,1.7,71,0.00,,,0.01,tws,2013-12-22 03:30:00,
2013-12-21 20:40:00,44.9,36.6,29.98,South,180,0.3,1.6,72,0.00,,,0.01,tws,2013-12-22 03:40:00,
2013-12-21 20:50:00,44.5,36.5,29.99,NW,315,0.4,1.7,73,0.00,,,0.01,tws,2013-12-22 03:50:00,
2013-12-21 21:00:00,44.2,36.4,29.99,NNE,22,1.8,2.6,73,0.00,,,0.01,tws,2013-12-22 04:00:00,
2013-12-21 21:10:00,43.9,36.3,30.00,NW,315,1.7,2.3,74,0.00,,,0.01,tws,2013-12-22 04:10:00,
2013-12-21 21:20:00,43.7,36.5,30.00,NNW,337,1.3,1.6,75,0.00,,,0.01,tws,2013-12-22 04:20:00,
2013-12-21 21:30:00,43.5,36.4,30.01,North,0,0.9,1.7,75,0.00,,,0.01,tws,2013-12-22 04:30:00,
2013-12-21 21:40:00,43.4,36.5,30.01,East,90,0.1,0.5,76,0.00,,,0.01,tws,2013-12-22 04:40:00,
2013-12-21 21:50:00,43.3,36.5,30.01,North,0,0.0,0.0,76,0.00,,,0.01,tws,2013-12-22 04:50:00,
2013-12-21 22:00:00,43.2,36.6,30.01,NW,315,0.8,1.9,77,0.00,,,0.01,tws,2013-12-22 05:00:00,
2013-12-21 22:10:00,43.1,36.7,30.02,NW,315,0.4,1.3,77,0.00,,,0.01,tws,2013-12-22 05:10:00,
2013-12-21 22:20:00,43.2,36.8,30.03,NNW,337,0.1,0.8,78,0.00,,,0.01,tws,2013-12-22 05:20:00,
2013-12-21 22:30:00,43.2,36.9,30.03,NW,315,0.2,1.4,78,0.00,,,0.01,tws,2013-12-22 05:30:00,
2013-12-21 22:40:00,43.3,37.0,30.03,East,90,0.0,0.2,78,0.00,,,0.01,tws,2013-12-22 05:40:00,
2013-12-21 22:50:00,43.3,37.0,30.04,East,90,0.0,0.0,78,0.00,,,0.01,tws,2013-12-22 05:50:00,
2013-12-21 23:00:00,43.1,36.9,30.04,West,270,0.0,0.0,78,0.00,,,0.01,tws,2013-12-22 06:00:00,
2013-12-21 23:10:00,42.9,36.7,30.04,SW,225,1.0,1.6,78,0.00,,,0.01,tws,2013-12-22 06:10:00,
2013-12-21 23:20:00,42.6,36.4,30.05,NW,315,0.4,0.8,78,0.00,,,0.01,tws,2013-12-22 06:20:00,
2013-12-21 23:30:00,42.3,36.1,30.04,NW,315,1.3,1.9,78,0.00,,,0.01,tws,2013-12-22 06:30:00,
2013-12-21 23:40:00,42.0,35.9,30.04,WNW,292,0.9,2.0,78,0.00,,,0.01,tws,2013-12-22 06:40:00,
2013-12-21 23:50:00,41.8,35.8,30.05,WNW,292,0.0,0.0,79,0.00,,,0.01,tws,2013-12-22 06:50:00,